createdAt,value
2018-08-14T00:04:14.747Z,10.94
2018-08-14T00:10:13.465Z,9.71
2018-08-14T00:16:04.793Z,35.11
2018-08-14T00:21:59.780Z,14.06
2018-08-14T00:27:54.804Z,13.97
2018-08-14T00:33:49.773Z,14.14
2018-08-14T00:39:44.760Z,13.6
2018-08-14T00:45:39.787Z,11.5
2018-08-14T00:51:34.762Z,16.22
2018-08-14T00:57:29.804Z,8.83
2018-08-14T01:03:24.776Z,13.96
2018-08-14T01:09:19.787Z,12.36
2018-08-14T01:15:14.781Z,10.1
2018-08-14T01:21:09.747Z,8.53
2018-08-14T01:27:04.796Z,15.86
2018-08-14T01:32:59.766Z,10.96
2018-08-14T01:38:54.766Z,13.04
2018-08-14T01:44:49.763Z,13.52
2018-08-14T01:50:44.821Z,9.12
2018-08-14T01:56:39.789Z,10.79
2018-08-14T02:02:34.789Z,8.53
2018-08-14T02:08:29.779Z,12.4
2018-08-14T02:14:24.793Z,7.8
2018-08-14T02:20:19.782Z,11.62
2018-08-14T02:26:14.782Z,15.84
2018-08-14T02:32:09.793Z,13.22
2018-08-14T02:38:04.783Z,8.89
2018-08-14T02:43:59.809Z,13.03
2018-08-14T02:49:54.783Z,16.07
2018-08-14T02:55:49.784Z,9.95
2018-08-14T03:01:44.786Z,9.73
2018-08-14T03:07:39.825Z,15.3
2018-08-14T03:13:34.812Z,11.16
2018-08-14T03:19:29.888Z,10.62
2018-08-14T03:25:24.814Z,12.82
2018-08-14T03:31:19.778Z,10.23
2018-08-14T03:37:14.768Z,11.42
2018-08-14T03:43:09.840Z,9.69
2018-08-14T03:49:04.803Z,9.37
2018-08-14T03:54:59.817Z,9.8
2018-08-14T04:00:54.796Z,14.98
2018-08-14T04:06:49.805Z,13.49
2018-08-14T04:12:44.813Z,13.24
2018-08-14T04:18:39.782Z,19.89
2018-08-14T04:24:34.793Z,10.42
2018-08-14T04:30:29.861Z,10.63
2018-08-14T04:36:24.789Z,14.1
2018-08-14T04:42:19.804Z,16.87
2018-08-14T04:48:14.802Z,13.71
2018-08-14T04:54:09.870Z,12.06
2018-08-14T05:00:04.790Z,13.26
2018-08-14T05:06:00.772Z,15.64
2018-08-14T05:11:54.824Z,13.44
2018-08-14T05:17:49.786Z,14.39
2018-08-14T05:23:44.785Z,13.12
2018-08-14T05:29:39.810Z,16.37
2018-08-14T05:35:34.864Z,14.96
2018-08-14T05:41:29.814Z,18.15
2018-08-14T05:47:24.810Z,12.66
2018-08-14T05:53:19.792Z,17.91
2018-08-14T05:59:14.800Z,19.2
2018-08-14T06:05:09.818Z,16.09
2018-08-14T06:11:04.821Z,14.4
2018-08-14T06:16:59.835Z,17.33
2018-08-14T06:22:54.797Z,13.71
2018-08-14T06:28:49.849Z,14.69
2018-08-14T06:34:44.799Z,12.28
2018-08-14T06:40:39.816Z,9.92
2018-08-14T06:46:34.830Z,13.28
2018-08-14T06:52:29.790Z,12.5
2018-08-14T06:58:24.805Z,14.83
2018-08-14T07:04:19.840Z,15.48
2018-08-14T07:10:14.804Z,18.36
2018-08-14T07:16:09.806Z,12
2018-08-14T07:22:04.822Z,14.07
2018-08-14T07:27:59.835Z,13.75
2018-08-14T07:33:54.800Z,14.27
2018-08-14T07:39:49.837Z,10.26
2018-08-14T07:45:44.821Z,11.33
2018-08-14T07:51:39.868Z,12.93
2018-08-14T07:57:34.839Z,9.05
2018-08-14T08:03:29.823Z,10.85
2018-08-14T08:09:24.841Z,11.52
2018-08-14T08:15:19.818Z,14.82
2018-08-14T08:21:14.819Z,18.33
2018-08-14T08:27:09.798Z,29.93
2018-08-14T08:33:04.803Z,23.84
2018-08-14T08:38:59.808Z,23.3
2018-08-14T08:44:54.852Z,15.8
2018-08-14T08:50:49.818Z,14.96
2018-08-14T08:56:44.865Z,16.02
2018-08-14T09:02:39.863Z,17.27
2018-08-14T09:08:34.881Z,13.62
2018-08-14T09:14:29.810Z,17
2018-08-14T09:20:24.807Z,19
2018-08-14T09:26:19.825Z,13.56
2018-08-14T09:32:14.814Z,18.65
2018-08-14T09:38:09.808Z,15.45
2018-08-14T09:44:04.817Z,15.35
2018-08-14T09:49:59.818Z,21.57
2018-08-14T09:55:54.804Z,16.38
2018-08-14T10:01:49.917Z,12.02
2018-08-14T10:07:44.845Z,15.75
2018-08-14T10:13:39.822Z,14.34
2018-08-14T10:19:34.831Z,14.62
2018-08-14T10:25:29.829Z,14.44
2018-08-14T10:31:24.845Z,13.52
2018-08-14T10:37:19.825Z,11.69
2018-08-14T10:43:14.871Z,13.24
2018-08-14T10:49:09.827Z,10.74
2018-08-14T10:55:04.868Z,8.44
2018-08-14T11:00:59.828Z,12.59
2018-08-14T11:06:54.873Z,10.44
2018-08-14T11:12:49.834Z,8.64
2018-08-14T11:18:44.840Z,10.83
2018-08-14T11:24:39.842Z,10.59
2018-08-14T11:30:34.833Z,11.96
2018-08-14T11:36:29.856Z,25.33
2018-08-14T11:42:24.876Z,15.25
2018-08-14T11:48:19.835Z,6.12
2018-08-14T11:54:14.855Z,4.84
2018-08-14T12:00:09.919Z,8.05
2018-08-14T14:51:44.877Z,8.33
2018-08-14T14:57:39.875Z,7.43
2018-08-14T15:03:34.902Z,9.14
2018-08-14T15:09:29.869Z,5.67
2018-08-14T15:15:24.864Z,5.02
2018-08-14T15:21:19.884Z,6.23
2018-08-14T15:27:14.872Z,3.69
2018-08-14T15:33:09.848Z,5.25
2018-08-14T15:39:04.875Z,4.3
2018-08-14T15:44:59.883Z,8.32
2018-08-14T15:50:54.879Z,3.31
2018-08-14T15:56:49.899Z,3.63
2018-08-14T16:02:44.863Z,3.25
2018-08-14T16:08:39.935Z,2.89
2018-08-14T16:14:34.887Z,4.45
2018-08-14T16:20:29.871Z,4.87
2018-08-14T16:26:24.906Z,2.34
2018-08-14T16:32:19.879Z,4.29
2018-08-14T16:38:14.876Z,3.15
2018-08-14T16:44:09.913Z,2.15
2018-08-14T16:50:04.880Z,4.54
2018-08-14T16:55:59.862Z,3.01
2018-08-14T17:01:54.891Z,4.99
2018-08-14T17:07:50.004Z,3.53
2018-08-14T17:13:44.874Z,3.37
2018-08-14T17:19:39.929Z,7.28
2018-08-14T17:25:34.875Z,4.63
2018-08-14T17:31:30.004Z,6.28
2018-08-14T17:37:24.873Z,4.72
2018-08-14T17:43:19.899Z,6.63
2018-08-14T17:49:14.885Z,9.42
2018-08-14T17:55:09.873Z,5.91
2018-08-14T18:01:04.884Z,4.06
2018-08-14T18:06:59.869Z,3.82
2018-08-14T18:12:54.916Z,3.68
2018-08-14T18:18:49.902Z,4.2
2018-08-14T18:24:44.939Z,4.31
2018-08-14T18:30:39.912Z,6.92
2018-08-14T18:36:34.908Z,4.61
2018-08-14T18:42:29.926Z,10.72
2018-08-14T18:48:24.910Z,9.26
2018-08-14T18:54:19.892Z,11.13
2018-08-14T19:00:14.885Z,8.37
2018-08-14T19:06:09.896Z,9.85
2018-08-14T19:12:04.951Z,12.32
2018-08-14T19:17:59.931Z,11.14
2018-08-14T19:23:54.926Z,5.61
2018-08-14T19:29:49.907Z,7.09
2018-08-14T19:35:44.887Z,22.91
2018-08-14T19:41:39.960Z,10.43
2018-08-14T19:47:34.928Z,6.97
2018-08-14T19:53:29.894Z,8.36
2018-08-14T19:59:24.905Z,5.5
2018-08-14T20:05:19.904Z,5.59
2018-08-14T20:11:14.910Z,5.72
2018-08-14T20:17:09.909Z,5.41
2018-08-14T20:23:04.904Z,4.46
2018-08-14T20:28:59.919Z,9.87
2018-08-14T20:34:54.898Z,11.83
2018-08-14T20:40:49.908Z,8.68
2018-08-14T20:46:44.885Z,4.59
2018-08-14T20:52:39.880Z,4.33
2018-08-14T20:58:34.920Z,5.38
2018-08-14T21:04:29.905Z,6.2
2018-08-14T21:10:24.964Z,4.6
2018-08-14T21:16:19.903Z,5.76
2018-08-14T21:22:14.908Z,4.79
2018-08-14T21:28:09.916Z,6.57
2018-08-14T21:34:04.955Z,6.06
2018-08-14T21:39:59.918Z,7.3
2018-08-14T21:45:54.956Z,7.43
2018-08-14T21:51:49.939Z,5.19
2018-08-14T21:57:44.933Z,6.63
2018-08-14T22:03:39.959Z,8.44
2018-08-14T22:09:34.903Z,7.21
2018-08-14T22:15:29.940Z,7.23
2018-08-14T22:21:24.929Z,5.8
2018-08-14T22:27:19.899Z,7.62
2018-08-14T22:33:14.919Z,7.28
2018-08-14T22:39:09.925Z,7.1
2018-08-14T22:45:04.939Z,7.46
2018-08-14T22:50:59.942Z,3.71
2018-08-14T22:56:54.952Z,6.8
2018-08-14T23:08:44.919Z,6.36
2018-08-14T23:14:39.927Z,7.58
2018-08-14T23:20:34.953Z,8.25
2018-08-14T23:26:29.927Z,6.03
2018-08-14T23:32:24.919Z,5.02
2018-08-14T23:38:19.922Z,8.87
2018-08-14T23:44:14.955Z,7.02
2018-08-14T23:50:09.908Z,5.08
2018-08-14T23:56:04.961Z,5.91
